createdAt,value
2022-08-19T00:01:37.918Z,101303.72
2022-08-19T00:12:04.031Z,101303.88
2022-08-19T00:14:33.756Z,101300.16
2022-08-19T00:17:01.273Z,101307.31
2022-08-19T00:19:28.011Z,101298.28
2022-08-19T00:21:55.306Z,101298.69
2022-08-19T00:24:21.703Z,101307.06
2022-08-19T00:26:48.120Z,101300.63
2022-08-19T00:29:17.570Z,101295.91
2022-08-19T00:31:45.524Z,101292.00
2022-08-19T00:34:13.467Z,101300.16
2022-08-19T00:36:41.445Z,101285.59
2022-08-19T00:39:09.219Z,101291.13
2022-08-19T00:41:35.918Z,101286.56
2022-08-19T00:44:14.398Z,101297.84
2022-08-19T00:46:45.573Z,101290.47
2022-08-19T00:49:36.337Z,101303.50
2022-08-19T00:52:09.757Z,101303.31
2022-08-19T00:54:38.410Z,101304.91
2022-08-19T00:57:08.687Z,101301.81
2022-08-19T01:00:00.993Z,101300.19
2022-08-19T01:02:25.189Z,101302.22
2022-08-19T01:04:51.712Z,101296.63
2022-08-19T01:07:19.698Z,101296.81
2022-08-19T01:09:46.427Z,101305.19
2022-08-19T01:12:13.216Z,101300.06
2022-08-19T01:14:41.262Z,101298.03
2022-08-19T01:17:12.031Z,101306.19
2022-08-19T01:19:44.043Z,101302.28
2022-08-19T01:22:33.679Z,101297.13
2022-08-19T01:25:01.758Z,101309.00
2022-08-19T01:27:43.065Z,101303.66
2022-08-19T01:30:14.945Z,101311.06
2022-08-19T01:32:41.631Z,101312.09
2022-08-19T01:35:08.726Z,101309.88
2022-08-19T01:38:09.470Z,101300.28
2022-08-19T01:40:39.167Z,101301.31
2022-08-19T01:43:06.615Z,101297.84
2022-08-19T01:45:34.800Z,101303.38
2022-08-19T01:48:03.134Z,101300.91
2022-08-19T01:50:30.726Z,101311.63
2022-08-19T01:53:02.324Z,101314.28
2022-08-19T01:55:32.600Z,101313.69
2022-08-19T01:58:01.309Z,101309.44
2022-08-19T02:00:30.607Z,101310.53
2022-08-19T02:02:57.256Z,101308.84
2022-08-19T02:05:23.994Z,101315.47
2022-08-19T02:07:50.504Z,101318.94
2022-08-19T02:10:21.918Z,101316.94
2022-08-19T02:12:50.413Z,101317.78
2022-08-19T02:15:20.293Z,101323.34
2022-08-19T02:17:47.978Z,101319.75
2022-08-19T02:20:15.905Z,101315.22
2022-08-19T02:22:43.484Z,101316.88
2022-08-19T02:25:12.339Z,101315.03
2022-08-19T02:27:39.997Z,101323.22
2022-08-19T02:30:13.830Z,101322.78
2022-08-19T02:32:54.398Z,101320.88
2022-08-19T02:35:21.743Z,101323.13
2022-08-19T02:38:07.504Z,101326.34
2022-08-19T02:40:35.262Z,101328.56
2022-08-19T02:43:08.267Z,101326.53
2022-08-19T02:45:36.738Z,101323.03
2022-08-19T02:48:14.858Z,101320.78
2022-08-19T02:50:53.279Z,101326.13
2022-08-19T02:53:19.890Z,101313.34
2022-08-19T02:55:47.686Z,101321.31
2022-08-19T02:58:15.675Z,101309.59
2022-08-19T03:00:48.711Z,101317.75
2022-08-19T03:03:15.200Z,101318.72
2022-08-19T03:05:55.659Z,101312.13
2022-08-19T03:08:23.790Z,101313.50
2022-08-19T03:10:50.149Z,101317.53
2022-08-19T03:13:18.351Z,101319.38
2022-08-19T03:15:46.923Z,101318.09
2022-08-19T03:18:14.387Z,101320.13
2022-08-19T03:20:49.952Z,101320.94
2022-08-19T03:23:17.209Z,101320.88
2022-08-19T03:25:47.126Z,101318.81
2022-08-19T03:28:24.955Z,101325.06
2022-08-19T03:31:43.518Z,101329.53
2022-08-19T03:33:55.622Z,101328.00
2022-08-19T03:36:24.337Z,101334.41
2022-08-19T03:38:57.543Z,101335.22
2022-08-19T03:41:44.265Z,101322.28
2022-08-19T03:44:14.305Z,101322.22
2022-08-19T03:46:45.590Z,101329.28
2022-08-19T03:49:14.130Z,101326.81
2022-08-19T03:51:42.434Z,101331.13
2022-08-19T03:54:12.421Z,101336.63
2022-08-19T03:56:40.450Z,101329.84
2022-08-19T03:59:09.736Z,101328.19
2022-08-19T04:01:36.679Z,101333.72
2022-08-19T04:04:04.742Z,101326.28
2022-08-19T04:06:34.683Z,101321.63
2022-08-19T04:09:04.151Z,101324.84
2022-08-19T04:11:54.600Z,101332.41
2022-08-19T04:14:24.989Z,101325.47
2022-08-19T04:16:52.172Z,101323.81
2022-08-19T04:19:19.527Z,101325.66
2022-08-19T04:21:48.346Z,101321.38
2022-08-19T04:24:15.601Z,101324.19
2022-08-19T04:26:42.403Z,101314.16
2022-08-19T04:29:12.998Z,101302.03
2022-08-19T04:31:40.967Z,101307.94
2022-08-19T04:34:09.336Z,101301.97
2022-08-19T04:36:36.728Z,101313.59
2022-08-19T04:39:07.387Z,101294.75
2022-08-19T04:41:53.123Z,101304.81
2022-08-19T04:44:19.744Z,101297.22
2022-08-19T04:46:51.223Z,101304.81
2022-08-19T04:49:22.696Z,101297.22
2022-08-19T04:51:50.643Z,101300.63
2022-08-19T04:54:23.942Z,101296.31
2022-08-19T04:57:07.807Z,101301.16
2022-08-19T04:59:34.896Z,101310.50
2022-08-19T05:02:01.343Z,101306.56
2022-08-19T05:04:32.541Z,101307.59
2022-08-19T05:07:01.100Z,101312.91
2022-08-19T05:09:28.265Z,101310.25
2022-08-19T05:11:59.554Z,101311.63
2022-08-19T05:14:25.907Z,101315.56
2022-08-19T05:17:06.482Z,101306.38
2022-08-19T05:19:57.334Z,101320.75
2022-08-19T05:22:44.009Z,101317.94
2022-08-19T05:25:14.717Z,101318.47
2022-08-19T05:27:42.707Z,101329.56
2022-08-19T05:30:10.371Z,101316.91
2022-08-19T05:32:37.183Z,101319.00
2022-08-19T05:35:05.377Z,101321.75
2022-08-19T05:37:31.774Z,101316.88
2022-08-19T05:39:58.305Z,101320.19
2022-08-19T05:42:24.746Z,101321.44
2022-08-19T05:44:51.772Z,101327.69
2022-08-19T05:47:20.566Z,101330.78
2022-08-19T05:49:47.422Z,101342.50
2022-08-19T05:52:16.981Z,101330.50
2022-08-19T05:54:51.129Z,101336.25
2022-08-19T05:57:21.489Z,101330.78
2022-08-19T05:59:49.324Z,101330.56
2022-08-19T06:02:19.439Z,101326.97
2022-08-19T06:04:45.902Z,101337.78
2022-08-19T06:07:13.065Z,101336.31
2022-08-19T06:09:40.567Z,101333.75
2022-08-19T06:12:07.599Z,101336.50
2022-08-19T06:14:40.414Z,101322.59
2022-08-19T06:17:09.072Z,101331.94
2022-08-19T06:19:40.928Z,101334.34
2022-08-19T06:22:08.413Z,101334.78
2022-08-19T06:24:36.288Z,101338.97
2022-08-19T06:27:03.828Z,101335.97
2022-08-19T06:29:30.964Z,101339.72
2022-08-19T06:31:59.701Z,101342.50
2022-08-19T06:34:28.871Z,101346.25
2022-08-19T06:36:56.913Z,101340.81
2022-08-19T06:39:26.923Z,101344.78
2022-08-19T06:41:58.892Z,101340.94
2022-08-19T06:44:28.741Z,101339.38
2022-08-19T06:46:57.020Z,101345.56
2022-08-19T06:49:24.594Z,101341.38
2022-08-19T06:51:51.775Z,101347.41
2022-08-19T06:54:20.159Z,101348.69
2022-08-19T06:56:47.574Z,101350.56
2022-08-19T06:59:18.659Z,101357.81
2022-08-19T07:01:49.272Z,101354.97
2022-08-19T07:04:18.613Z,101352.31
2022-08-19T07:06:45.984Z,101347.59
2022-08-19T07:09:21.613Z,101344.75
2022-08-19T07:11:50.266Z,101345.81
2022-08-19T07:14:19.975Z,101351.19
2022-08-19T07:16:48.514Z,101355.97
2022-08-19T07:19:18.658Z,101363.75
2022-08-19T07:21:47.160Z,101368.28
2022-08-19T07:24:13.599Z,101368.94
2022-08-19T07:26:43.115Z,101363.00
2022-08-19T07:29:11.126Z,101373.28
2022-08-19T07:31:38.108Z,101374.53
2022-08-19T07:34:10.304Z,101376.38
2022-08-19T07:36:41.511Z,101370.44
2022-08-19T07:39:20.140Z,101378.25
2022-08-19T07:41:47.200Z,101380.34
2022-08-19T07:44:15.243Z,101378.50
2022-08-19T07:46:46.477Z,101388.56
2022-08-19T07:49:19.959Z,101381.00
2022-08-19T07:51:53.309Z,101390.50
2022-08-19T07:54:20.997Z,101385.69
2022-08-19T07:56:47.508Z,101394.31
2022-08-19T07:59:14.038Z,101397.38
2022-08-19T08:01:41.786Z,101398.22
2022-08-19T08:04:27.276Z,101395.63
2022-08-19T08:07:12.982Z,101391.38
2022-08-19T08:09:42.674Z,101400.66
2022-08-19T08:12:33.698Z,101395.09
2022-08-19T08:15:08.150Z,101387.50
2022-08-19T08:17:48.866Z,101389.16
2022-08-19T08:20:17.483Z,101396.00
2022-08-19T08:23:04.326Z,101394.81
2022-08-19T08:25:32.581Z,101408.81
2022-08-19T08:28:01.126Z,101407.56
2022-08-19T08:30:31.154Z,101410.00
2022-08-19T08:32:59.624Z,101417.56
2022-08-19T08:35:26.411Z,101411.72
2022-08-19T08:37:54.627Z,101411.22
2022-08-19T08:40:27.194Z,101414.91
2022-08-19T08:45:41.162Z,101407.72
2022-08-19T08:48:24.217Z,101409.88
2022-08-19T08:50:54.187Z,101403.88
2022-08-19T08:53:29.708Z,101412.16
2022-08-19T08:56:01.274Z,101407.84
2022-08-19T08:58:55.289Z,101408.63
2022-08-19T09:01:21.824Z,101410.63
2022-08-19T09:03:48.474Z,101409.53
2022-08-19T09:06:37.912Z,101408.34
2022-08-19T09:09:25.400Z,101413.75
2022-08-19T09:12:20.911Z,101405.72
2022-08-19T09:14:58.658Z,101402.72
2022-08-19T09:17:31.814Z,101400.22
2022-08-19T09:20:26.538Z,101406.63
2022-08-19T09:22:53.031Z,101404.00
2022-08-19T09:25:26.973Z,101401.31
2022-08-19T09:28:02.898Z,101403.47
2022-08-19T09:30:33.938Z,101404.44
2022-08-19T09:33:00.381Z,101408.63
2022-08-19T09:35:32.534Z,101402.94
2022-08-19T09:38:16.799Z,101404.03
2022-08-19T09:40:43.189Z,101410.13
2022-08-19T09:43:13.240Z,101404.72
2022-08-19T09:45:40.698Z,101413.03
2022-08-19T09:48:07.490Z,101413.66
2022-08-19T09:50:37.175Z,101418.25
2022-08-19T09:53:03.731Z,101416.84
2022-08-19T09:55:33.215Z,101422.38
2022-08-19T09:58:01.613Z,101430.44
2022-08-19T10:00:28.267Z,101423.38
2022-08-19T10:02:54.656Z,101429.47
2022-08-19T10:05:42.179Z,101428.75
2022-08-19T10:08:13.310Z,101430.88
2022-08-19T10:10:47.165Z,101435.00
2022-08-19T10:13:16.190Z,101433.56
2022-08-19T10:15:47.203Z,101426.81
2022-08-19T10:18:16.624Z,101437.69
2022-08-19T10:20:43.694Z,101437.56
2022-08-19T10:23:10.449Z,101429.06
2022-08-19T10:25:36.979Z,101427.66
2022-08-19T10:28:06.794Z,101429.84
2022-08-19T10:30:37.555Z,101429.38
2022-08-19T10:33:08.678Z,101433.50
2022-08-19T10:35:56.515Z,101426.59
2022-08-19T10:38:31.781Z,101425.44
2022-08-19T10:41:07.525Z,101421.94
2022-08-19T10:43:38.091Z,101413.44
2022-08-19T10:46:13.698Z,101422.41
2022-08-19T10:48:41.351Z,101418.19
2022-08-19T10:51:26.324Z,101414.00
2022-08-19T10:53:54.348Z,101418.91
2022-08-19T10:56:39.371Z,101421.03
2022-08-19T10:59:06.039Z,101416.25
2022-08-19T11:01:34.983Z,101410.34
2022-08-19T11:04:03.684Z,101410.41
2022-08-19T11:06:31.810Z,101409.94
2022-08-19T11:09:00.801Z,101408.53
2022-08-19T11:11:29.260Z,101409.13
2022-08-19T11:13:55.676Z,101411.28
2022-08-19T11:16:27.527Z,101412.69
2022-08-19T11:18:59.261Z,101404.47
2022-08-19T11:21:34.835Z,101407.84
2022-08-19T11:24:08.187Z,101396.81
2022-08-19T11:26:36.363Z,101408.06
2022-08-19T11:29:04.414Z,101401.44
2022-08-19T11:31:33.943Z,101398.06
2022-08-19T11:34:03.978Z,101397.88
2022-08-19T11:36:32.203Z,101400.78
2022-08-19T11:38:58.758Z,101404.88
2022-08-19T11:41:25.698Z,101401.59
2022-08-19T11:43:55.065Z,101391.31
2022-08-19T11:46:23.274Z,101388.94
2022-08-19T11:48:51.497Z,101389.06
2022-08-19T11:51:21.165Z,101389.19
2022-08-19T11:53:47.581Z,101390.78
2022-08-19T11:56:14.090Z,101389.19
2022-08-19T11:58:42.914Z,101387.06
2022-08-19T12:01:12.645Z,101397.03
2022-08-19T12:03:39.560Z,101386.38
2022-08-19T12:06:15.490Z,101383.00
2022-08-19T12:08:43.881Z,101379.41
2022-08-19T12:11:12.139Z,101380.19
2022-08-19T12:13:39.980Z,101384.44
2022-08-19T12:16:15.813Z,101390.94
2022-08-19T12:18:46.225Z,101392.03
2022-08-19T12:21:25.998Z,101382.22
2022-08-19T12:23:55.795Z,101377.84
2022-08-19T12:26:22.910Z,101377.66
2022-08-19T12:28:49.415Z,101387.22
2022-08-19T12:31:16.190Z,101388.81
2022-08-19T12:33:43.094Z,101384.13
2022-08-19T12:36:12.651Z,101383.53
2022-08-19T12:38:40.367Z,101380.06
2022-08-19T12:41:07.532Z,101383.22
2022-08-19T12:43:35.921Z,101375.44
2022-08-19T12:46:05.231Z,101372.34
2022-08-19T12:48:34.899Z,101372.13
2022-08-19T12:51:07.536Z,101374.75
2022-08-19T12:53:33.930Z,101375.53
2022-08-19T12:56:01.084Z,101365.19
2022-08-19T12:58:28.603Z,101365.44
2022-08-19T13:00:55.038Z,101363.13
2022-08-19T13:03:23.262Z,101362.03
2022-08-19T13:05:51.790Z,101356.53
2022-08-19T13:08:18.167Z,101351.13
2022-08-19T13:10:44.955Z,101347.34
2022-08-19T13:13:11.423Z,101343.13
2022-08-19T13:15:41.098Z,101346.50
2022-08-19T13:18:09.855Z,101343.59
2022-08-19T13:20:38.106Z,101340.41
2022-08-19T13:23:05.257Z,101338.44
2022-08-19T13:25:32.152Z,101339.34
2022-08-19T13:27:58.552Z,101343.44
2022-08-19T13:30:43.662Z,101343.69
2022-08-19T13:33:15.395Z,101334.88
2022-08-19T13:35:42.962Z,101337.38
2022-08-19T13:38:12.033Z,101331.50
2022-08-19T13:40:39.432Z,101338.16
2022-08-19T13:43:12.460Z,101335.41
2022-08-19T13:45:53.798Z,101322.78
2022-08-19T13:48:20.292Z,101326.81
2022-08-19T13:50:48.221Z,101325.19
2022-08-19T13:53:15.705Z,101322.53
2022-08-19T13:55:43.782Z,101313.94
2022-08-19T13:58:12.092Z,101315.34
2022-08-19T14:00:42.765Z,101314.00
2022-08-19T14:03:09.901Z,101319.31
2022-08-19T14:05:36.720Z,101314.75
2022-08-19T14:08:03.970Z,101311.06
2022-08-19T14:10:31.679Z,101309.59
2022-08-19T14:12:59.959Z,101312.31
2022-08-19T14:15:27.664Z,101322.47
2022-08-19T14:17:54.975Z,101321.88
2022-08-19T14:20:22.479Z,101323.06
2022-08-19T14:22:53.874Z,101319.91
2022-08-19T14:25:21.863Z,101329.78
2022-08-19T14:27:49.060Z,101326.41
2022-08-19T14:30:19.971Z,101337.91
2022-08-19T14:32:46.504Z,101329.78
2022-08-19T14:35:15.780Z,101327.75
2022-08-19T14:37:46.166Z,101332.16
2022-08-19T14:40:15.802Z,101329.03
2022-08-19T14:42:42.978Z,101333.50
2022-08-19T14:45:11.320Z,101337.75
2022-08-19T14:47:39.628Z,101331.81
2022-08-19T14:50:18.039Z,101330.56
2022-08-19T14:52:46.040Z,101331.78
2022-08-19T14:55:12.497Z,101334.09
2022-08-19T14:57:40.986Z,101339.50
2022-08-19T15:00:08.423Z,101336.25
2022-08-19T15:02:35.583Z,101340.25
2022-08-19T15:05:02.809Z,101332.03
2022-08-19T15:07:30.170Z,101332.38
2022-08-19T15:09:57.547Z,101321.34
2022-08-19T15:12:24.859Z,101323.81
2022-08-19T15:14:55.883Z,101329.09
2022-08-19T15:17:41.394Z,101331.97
2022-08-19T15:20:12.123Z,101328.78
2022-08-19T15:22:38.595Z,101334.09
2022-08-19T15:25:07.511Z,101342.00
2022-08-19T15:27:34.023Z,101347.91
2022-08-19T15:30:01.282Z,101342.91
2022-08-19T15:32:28.850Z,101347.00
2022-08-19T15:34:55.244Z,101351.34
2022-08-19T15:37:25.123Z,101355.88
2022-08-19T15:39:51.735Z,101350.59
2022-08-19T15:42:29.870Z,101352.50
2022-08-19T15:44:56.846Z,101358.28
2022-08-19T15:47:34.583Z,101355.25
2022-08-19T15:50:15.405Z,101356.06
2022-08-19T15:52:50.713Z,101361.06
2022-08-19T15:55:34.068Z,101373.09
2022-08-19T15:58:28.400Z,101374.03
2022-08-19T16:01:14.870Z,101374.03
2022-08-19T16:03:59.873Z,101367.59
2022-08-19T16:06:26.275Z,101372.28
2022-08-19T16:09:04.104Z,101369.25
2022-08-19T16:11:39.422Z,101366.13
2022-08-19T16:14:09.251Z,101367.03
2022-08-19T16:16:36.903Z,101365.28
2022-08-19T16:19:06.956Z,101367.59
2022-08-19T16:21:41.524Z,101373.34
2022-08-19T16:24:10.469Z,101374.75
2022-08-19T16:26:37.163Z,101375.19
2022-08-19T16:29:08.890Z,101384.06
2022-08-19T16:31:39.023Z,101384.44
2022-08-19T16:34:06.358Z,101390.25
2022-08-19T16:36:33.493Z,101389.06
2022-08-19T16:39:00.702Z,101392.31
2022-08-19T16:41:27.944Z,101381.03
2022-08-19T16:43:55.358Z,101383.03
2022-08-19T16:46:22.930Z,101387.34
2022-08-19T16:48:50.095Z,101385.94
2022-08-19T16:51:17.042Z,101382.53
2022-08-19T16:53:45.146Z,101377.31
2022-08-19T16:56:12.253Z,101382.47
2022-08-19T16:58:39.115Z,101387.91
2022-08-19T17:01:07.759Z,101382.66
2022-08-19T17:03:36.289Z,101381.50
2022-08-19T17:06:15.953Z,101386.06
2022-08-19T17:08:48.831Z,101385.13
2022-08-19T17:11:18.582Z,101383.69
2022-08-19T17:13:48.026Z,101381.78
2022-08-19T17:16:16.315Z,101382.09
2022-08-19T17:18:42.591Z,101389.38
2022-08-19T17:21:08.977Z,101379.41
2022-08-19T17:23:42.327Z,101389.44
2022-08-19T17:26:16.890Z,101386.06
2022-08-19T17:28:49.505Z,101381.28
2022-08-19T17:31:17.766Z,101380.31
2022-08-19T17:33:48.259Z,101383.59
2022-08-19T17:36:19.468Z,101384.41
2022-08-19T17:38:45.904Z,101376.47
2022-08-19T17:41:12.339Z,101376.84
2022-08-19T17:43:43.380Z,101374.97
2022-08-19T17:46:17.751Z,101373.22
2022-08-19T17:48:47.358Z,101378.00
2022-08-19T17:51:22.565Z,101381.38
2022-08-19T17:53:52.552Z,101377.06
2022-08-19T17:56:19.757Z,101387.41
2022-08-19T17:58:59.613Z,101381.03
2022-08-19T18:01:33.484Z,101380.47
2022-08-19T18:04:14.699Z,101387.94
2022-08-19T18:06:41.855Z,101380.59
2022-08-19T18:09:13.441Z,101384.84
2022-08-19T18:11:39.908Z,101381.94
2022-08-19T18:14:06.390Z,101381.56
2022-08-19T18:16:32.795Z,101380.97
2022-08-19T18:18:59.301Z,101380.94
2022-08-19T18:21:31.576Z,101385.03
2022-08-19T18:24:01.819Z,101390.13
2022-08-19T18:26:29.079Z,101389.09
2022-08-19T18:28:55.613Z,101395.84
2022-08-19T18:31:23.371Z,101391.78
2022-08-19T18:33:52.463Z,101389.97
2022-08-19T18:36:37.433Z,101383.19
2022-08-19T18:39:24.368Z,101388.34
2022-08-19T18:42:09.756Z,101389.38
2022-08-19T18:44:59.643Z,101394.63
2022-08-19T18:47:45.121Z,101400.00
2022-08-19T18:50:12.957Z,101398.00
2022-08-19T18:52:40.357Z,101396.81
2022-08-19T18:55:07.743Z,101409.63
2022-08-19T18:57:34.267Z,101406.41
2022-08-19T19:00:02.718Z,101396.47
2022-08-19T19:02:29.348Z,101401.72
2022-08-19T19:04:56.075Z,101398.88
2022-08-19T19:07:23.280Z,101399.56
2022-08-19T19:09:52.653Z,101401.47
2022-08-19T19:12:19.300Z,101400.16
2022-08-19T19:14:49.444Z,101411.28
2022-08-19T19:17:17.114Z,101412.03
2022-08-19T19:19:44.399Z,101407.91
2022-08-19T19:22:13.107Z,101410.56
2022-08-19T19:24:44.051Z,101416.38
2022-08-19T19:27:13.822Z,101423.25
2022-08-19T19:29:41.550Z,101429.69
2022-08-19T19:32:20.857Z,101427.88
2022-08-19T19:34:47.530Z,101423.38
2022-08-19T19:37:13.938Z,101418.84
2022-08-19T19:39:46.776Z,101424.38
2022-08-19T19:42:19.945Z,101433.28
2022-08-19T19:44:48.936Z,101426.28
2022-08-19T19:47:17.377Z,101435.81
2022-08-19T19:50:03.845Z,101438.91
2022-08-19T19:52:31.477Z,101437.88
2022-08-19T19:54:57.870Z,101435.25
2022-08-19T19:57:26.615Z,101447.38
2022-08-19T19:59:54.175Z,101443.28
2022-08-19T20:02:21.859Z,101444.91
2022-08-19T20:04:51.089Z,101448.19
2022-08-19T20:07:17.799Z,101451.09
2022-08-19T20:09:59.222Z,101448.16
2022-08-19T20:12:26.431Z,101446.72
2022-08-19T20:14:52.785Z,101453.94
2022-08-19T20:17:20.393Z,101462.16
2022-08-19T20:19:47.728Z,101455.78
2022-08-19T20:22:14.417Z,101452.28
2022-08-19T20:24:42.445Z,101452.88
2022-08-19T20:27:09.229Z,101453.50
2022-08-19T20:29:41.659Z,101458.63
2022-08-19T20:32:11.427Z,101459.28
2022-08-19T20:34:39.251Z,101459.69
2022-08-19T20:37:05.929Z,101463.00
2022-08-19T20:39:32.349Z,101463.47
2022-08-19T20:42:00.697Z,101465.94
2022-08-19T20:44:27.071Z,101460.97
2022-08-19T20:46:54.504Z,101464.06
2022-08-19T20:49:23.003Z,101466.97
2022-08-19T20:51:54.533Z,101469.66
2022-08-19T20:54:21.078Z,101471.28
2022-08-19T20:56:47.458Z,101468.41
2022-08-19T20:59:13.835Z,101472.13
2022-08-19T21:01:40.234Z,101480.59
2022-08-19T21:04:06.688Z,101485.75
2022-08-19T21:06:33.085Z,101482.25
2022-08-19T21:08:59.446Z,101481.84
2022-08-19T21:11:25.867Z,101484.34
2022-08-19T21:13:52.295Z,101480.84
2022-08-19T21:16:18.687Z,101475.28
2022-08-19T21:18:45.081Z,101478.56
2022-08-19T21:21:11.563Z,101473.44
2022-08-19T21:23:37.947Z,101472.81
2022-08-19T21:26:04.307Z,101473.44
2022-08-19T21:28:35.827Z,101479.00
2022-08-19T21:31:04.111Z,101469.16
2022-08-19T21:33:32.099Z,101476.34
2022-08-19T21:35:58.825Z,101477.59
2022-08-19T21:38:25.227Z,101476.75
2022-08-19T21:40:51.723Z,101480.69
2022-08-19T21:43:18.218Z,101477.78
2022-08-19T21:45:46.211Z,101463.81
2022-08-19T21:48:14.558Z,101468.72
2022-08-19T21:50:42.440Z,101473.66
2022-08-19T21:53:09.049Z,101466.91
2022-08-19T21:55:41.137Z,101462.16
2022-08-19T21:58:07.519Z,101471.19
2022-08-19T22:00:35.311Z,101464.44
2022-08-19T22:03:02.495Z,101463.81
2022-08-19T22:05:31.168Z,101462.16
2022-08-19T22:07:59.216Z,101470.59
2022-08-19T22:10:32.768Z,101471.41
2022-08-19T22:12:59.567Z,101471.84
2022-08-19T22:15:29.540Z,101476.97
2022-08-19T22:17:58.416Z,101472.44
2022-08-19T22:20:27.859Z,101476.75
2022-08-19T22:22:58.183Z,101483.75
2022-08-19T22:25:31.222Z,101483.94
2022-08-19T22:28:02.376Z,101486.44
2022-08-19T22:30:33.576Z,101485.19
2022-08-19T22:33:03.904Z,101487.66
2022-08-19T22:35:35.712Z,101493.22
2022-08-19T22:38:03.452Z,101492.78
2022-08-19T22:40:30.959Z,101490.94
2022-08-19T22:43:03.410Z,101498.97
2022-08-19T22:45:31.108Z,101491.97
2022-08-19T22:47:57.962Z,101502.66
2022-08-19T22:50:24.967Z,101501.03
2022-08-19T22:52:59.227Z,101496.09
2022-08-19T22:55:27.001Z,101506.78
2022-08-19T22:57:54.435Z,101505.75
2022-08-19T23:00:22.674Z,101503.69
2022-08-19T23:02:52.147Z,101505.75
2022-08-19T23:05:21.858Z,101504.09
2022-08-19T23:07:52.197Z,101500.59
2022-08-19T23:10:27.378Z,101500.59
2022-08-19T23:12:56.678Z,101499.38
2022-08-19T23:15:26.680Z,101500.78
2022-08-19T23:17:56.419Z,101502.03
2022-08-19T23:20:26.927Z,101498.97
2022-08-19T23:22:54.750Z,101498.34
2022-08-19T23:25:24.792Z,101503.47
2022-08-19T23:28:10.531Z,101504.31
2022-08-19T23:30:41.061Z,101494.88
2022-08-19T23:33:50.841Z,101498.13
2022-08-19T23:36:17.875Z,101497.75
2022-08-19T23:38:46.473Z,101495.06
2022-08-19T23:41:14.314Z,101496.50
2022-08-19T23:43:41.910Z,101493.00
2022-08-19T23:46:10.817Z,101499.56
2022-08-19T23:48:38.198Z,101491.78
2022-08-19T23:51:09.036Z,101495.25
2022-08-19T23:53:37.778Z,101493.41
2022-08-19T23:56:04.855Z,101490.53
2022-08-19T23:58:31.882Z,101486.03
